sensor_id;sensor_type;location;lat;lon;timestamp;temperature;humidity
16102;DHT22;56411;52.964;10.540;2023-06-01T00:02:01;10.70;99.90
16102;DHT22;56411;52.964;10.540;2023-06-01T00:04:28;10.80;99.90
16102;DHT22;56411;52.964;10.540;2023-06-01T00:06:55;10.80;99.90
16102;DHT22;56411;52.964;10.540;2023-06-01T00:09:25;10.80;99.90
16102;DHT22;56411;52.964;10.540;2023-06-01T00:11:54;10.80;99.90
16102;DHT22;56411;52.964;10.540;2023-06-01T00:14:21;10.90;99.90
16102;DHT22;56411;52.964;10.540;2023-06-01T00:16:48;10.90;99.90
16102;DHT22;56411;52.964;10.540;2023-06-01T00:19:16;10.90;99.90
16102;DHT22;56411;52.964;10.540;2023-06-01T00:21:43;11.00;99.90
16102;DHT22;56411;52.964;10.540;2023-06-01T00:24:10;11.00;99.90
16102;DHT22;56411;52.964;10.540;2023-06-01T00:26:37;11.10;99.90
16102;DHT22;56411;52.964;10.540;2023-06-01T00:29:05;11.10;99.90
16102;DHT22;56411;52.964;10.540;2023-06-01T00:31:32;11.10;99.90
16102;DHT22;56411;52.964;10.540;2023-06-01T00:33:59;11.20;99.90
16102;DHT22;56411;52.964;10.540;2023-06-01T00:36:26;11.20;99.90
16102;DHT22;56411;52.964;10.540;2023-06-01T00:38:53;11.30;99.90
16102;DHT22;56411;52.964;10.540;2023-06-01T00:41:27;11.30;99.90
16102;DHT22;56411;52.964;10.540;2023-06-01T00:43:54;11.30;99.90
16102;DHT22;56411;52.964;10.540;2023-06-01T00:46:22;11.30;99.90
16102;DHT22;56411;52.964;10.540;2023-06-01T00:48:50;11.30;99.90
16102;DHT22;56411;52.964;10.540;2023-06-01T00:51:17;11.30;99.90
16102;DHT22;56411;52.964;10.540;2023-06-01T00:53:45;11.30;99.90
16102;DHT22;56411;52.964;10.540;2023-06-01T00:56:12;11.30;99.90
16102;DHT22;56411;52.964;10.540;2023-06-01T00:58:39;11.30;99.90
16102;DHT22;56411;52.964;10.540;2023-06-01T01:01:07;11.30;99.90
16102;DHT22;56411;52.964;10.540;2023-06-01T01:03:46;11.30;99.90
16102;DHT22;56411;52.964;10.540;2023-06-01T01:06:21;11.30;99.90
16102;DHT22;56411;52.964;10.540;2023-06-01T01:09:00;11.30;99.90
16102;DHT22;56411;52.964;10.540;2023-06-01T01:11:34;11.30;99.90
16102;DHT22;56411;52.964;10.540;2023-06-01T01:14:08;11.30;99.90
16102;DHT22;56411;52.964;10.540;2023-06-01T01:16:42;11.30;99.90
16102;DHT22;56411;52.964;10.540;2023-06-01T01:19:31;11.30;99.90
16102;DHT22;56411;52.964;10.540;2023-06-01T01:22:11;11.30;99.90
16102;DHT22;56411;52.964;10.540;2023-06-01T01:24:53;11.30;99.90
16102;DHT22;56411;52.964;10.540;2023-06-01T01:27:26;11.30;99.90
16102;DHT22;56411;52.964;10.540;2023-06-01T01:30:02;11.30;99.90
16102;DHT22;56411;52.964;10.540;2023-06-01T01:32:32;11.30;99.90
16102;DHT22;56411;52.964;10.540;2023-06-01T01:35:00;11.30;99.90
16102;DHT22;56411;52.964;10.540;2023-06-01T01:37:27;11.20;99.90
16102;DHT22;56411;52.964;10.540;2023-06-01T01:39:54;11.20;99.90
16102;DHT22;56411;52.964;10.540;2023-06-01T01:42:21;11.20;99.90
16102;DHT22;56411;52.964;10.540;2023-06-01T01:44:48;11.20;99.90
16102;DHT22;56411;52.964;10.540;2023-06-01T01:47:22;11.20;99.90
16102;DHT22;56411;52.964;10.540;2023-06-01T01:49:58;11.20;99.90
16102;DHT22;56411;52.964;10.540;2023-06-01T01:52:30;11.20;99.90
16102;DHT22;56411;52.964;10.540;2023-06-01T01:54:58;11.20;99.90
16102;DHT22;56411;52.964;10.540;2023-06-01T01:57:27;11.10;99.90
16102;DHT22;56411;52.964;10.540;2023-06-01T01:59:56;11.10;99.90
16102;DHT22;56411;52.964;10.540;2023-06-01T02:02:24;11.10;99.90
16102;DHT22;56411;52.964;10.540;2023-06-01T02:04:51;11.10;99.90
16102;DHT22;56411;52.964;10.540;2023-06-01T02:07:18;11.10;99.90
16102;DHT22;56411;52.964;10.540;2023-06-01T02:09:49;11.10;99.90
16102;DHT22;56411;52.964;10.540;2023-06-01T02:12:16;11.10;99.90
16102;DHT22;56411;52.964;10.540;2023-06-01T02:14:43;11.00;99.90
16102;DHT22;56411;52.964;10.540;2023-06-01T02:17:10;11.00;99.90
16102;DHT22;56411;52.964;10.540;2023-06-01T02:19:38;11.00;99.90
16102;DHT22;56411;52.964;10.540;2023-06-01T02:22:05;10.90;99.90
16102;DHT22;56411;52.964;10.540;2023-06-01T02:24:32;10.90;99.90
16102;DHT22;56411;52.964;10.540;2023-06-01T02:26:59;10.90;99.90
16102;DHT22;56411;52.964;10.540;2023-06-01T02:29:28;11.00;99.90
16102;DHT22;56411;52.964;10.540;2023-06-01T02:31:55;11.00;99.90
16102;DHT22;56411;52.964;10.540;2023-06-01T02:34:21;11.00;99.90
16102;DHT22;56411;52.964;10.540;2023-06-01T02:36:50;11.00;99.90
16102;DHT22;56411;52.964;10.540;2023-06-01T02:39:21;11.00;99.90
16102;DHT22;56411;52.964;10.540;2023-06-01T02:41:48;11.00;99.90
16102;DHT22;56411;52.964;10.540;2023-06-01T02:44:15;11.00;99.90
16102;DHT22;56411;52.964;10.540;2023-06-01T02:46:42;11.10;99.90
16102;DHT22;56411;52.964;10.540;2023-06-01T02:49:09;11.10;99.90
16102;DHT22;56411;52.964;10.540;2023-06-01T02:51:35;11.10;99.90
16102;DHT22;56411;52.964;10.540;2023-06-01T02:54:04;11.00;99.90
16102;DHT22;56411;52.964;10.540;2023-06-01T02:56:31;11.00;99.90
16102;DHT22;56411;52.964;10.540;2023-06-01T02:58:58;11.00;99.90
16102;DHT22;56411;52.964;10.540;2023-06-01T03:01:25;11.00;99.90
16102;DHT22;56411;52.964;10.540;2023-06-01T03:03:53;11.00;99.90
16102;DHT22;56411;52.964;10.540;2023-06-01T03:06:21;11.10;99.90
16102;DHT22;56411;52.964;10.540;2023-06-01T03:08:48;11.10;99.90
16102;DHT22;56411;52.964;10.540;2023-06-01T03:11:17;11.10;99.90
16102;DHT22;56411;52.964;10.540;2023-06-01T03:13:44;11.10;99.90
16102;DHT22;56411;52.964;10.540;2023-06-01T03:16:11;11.10;99.90
16102;DHT22;56411;52.964;10.540;2023-06-01T03:18:38;11.10;99.90
16102;DHT22;56411;52.964;10.540;2023-06-01T03:21:05;11.10;99.90
16102;DHT22;56411;52.964;10.540;2023-06-01T03:23:32;11.10;99.90
16102;DHT22;56411;52.964;10.540;2023-06-01T03:25:59;11.10;99.90
16102;DHT22;56411;52.964;10.540;2023-06-01T03:28:30;11.10;99.90
16102;DHT22;56411;52.964;10.540;2023-06-01T03:30:57;11.20;99.90
16102;DHT22;56411;52.964;10.540;2023-06-01T03:33:24;11.20;99.90
16102;DHT22;56411;52.964;10.540;2023-06-01T03:35:51;11.20;99.90
16102;DHT22;56411;52.964;10.540;2023-06-01T03:38:18;11.20;99.90
16102;DHT22;56411;52.964;10.540;2023-06-01T03:40:45;11.10;99.90
16102;DHT22;56411;52.964;10.540;2023-06-01T03:43:12;11.10;99.90
16102;DHT22;56411;52.964;10.540;2023-06-01T03:45:40;11.10;99.90
16102;DHT22;56411;52.964;10.540;2023-06-01T03:48:07;11.10;99.90
16102;DHT22;56411;52.964;10.540;2023-06-01T03:50:35;11.00;99.90
16102;DHT22;56411;52.964;10.540;2023-06-01T03:53:02;11.00;99.90
16102;DHT22;56411;52.964;10.540;2023-06-01T03:55:30;11.00;99.90
16102;DHT22;56411;52.964;10.540;2023-06-01T03:57:58;11.00;99.90
16102;DHT22;56411;52.964;10.540;2023-06-01T04:00:25;11.00;99.90
16102;DHT22;56411;52.964;10.540;2023-06-01T04:02:54;11.10;99.90
16102;DHT22;56411;52.964;10.540;2023-06-01T04:05:23;11.10;99.90
16102;DHT22;56411;52.964;10.540;2023-06-01T04:07:52;11.10;99.90
16102;DHT22;56411;52.964;10.540;2023-06-01T04:10:25;11.10;99.90
16102;DHT22;56411;52.964;10.540;2023-06-01T04:12:52;11.10;99.90
16102;DHT22;56411;52.964;10.540;2023-06-01T04:15:20;11.10;99.90
16102;DHT22;56411;52.964;10.540;2023-06-01T04:17:47;11.10;99.90
16102;DHT22;56411;52.964;10.540;2023-06-01T04:20:16;11.20;99.90
16102;DHT22;56411;52.964;10.540;2023-06-01T04:22:44;11.30;99.90
16102;DHT22;56411;52.964;10.540;2023-06-01T04:25:13;11.30;99.90
16102;DHT22;56411;52.964;10.540;2023-06-01T04:27:44;11.40;99.90
16102;DHT22;56411;52.964;10.540;2023-06-01T04:30:12;11.30;99.90
16102;DHT22;56411;52.964;10.540;2023-06-01T04:32:39;11.30;99.90
16102;DHT22;56411;52.964;10.540;2023-06-01T04:35:10;11.40;99.90
16102;DHT22;56411;52.964;10.540;2023-06-01T04:37:40;11.40;99.90
16102;DHT22;56411;52.964;10.540;2023-06-01T04:40:09;11.50;99.90
16102;DHT22;56411;52.964;10.540;2023-06-01T04:42:38;11.50;99.90
16102;DHT22;56411;52.964;10.540;2023-06-01T04:45:07;11.40;99.90
16102;DHT22;56411;52.964;10.540;2023-06-01T04:47:35;11.40;99.90
16102;DHT22;56411;52.964;10.540;2023-06-01T04:50:05;11.50;99.90
16102;DHT22;56411;52.964;10.540;2023-06-01T04:52:34;11.50;99.90
16102;DHT22;56411;52.964;10.540;2023-06-01T04:55:02;11.50;99.90
16102;DHT22;56411;52.964;10.540;2023-06-01T04:57:30;11.50;99.90
16102;DHT22;56411;52.964;10.540;2023-06-01T04:59:57;11.40;99.90
16102;DHT22;56411;52.964;10.540;2023-06-01T05:02:25;11.30;99.90
16102;DHT22;56411;52.964;10.540;2023-06-01T05:04:52;11.30;99.90
16102;DHT22;56411;52.964;10.540;2023-06-01T05:07:19;11.40;99.90
16102;DHT22;56411;52.964;10.540;2023-06-01T05:09:46;11.40;99.90
16102;DHT22;56411;52.964;10.540;2023-06-01T05:12:15;11.40;99.90
16102;DHT22;56411;52.964;10.540;2023-06-01T05:14:42;11.40;99.90
16102;DHT22;56411;52.964;10.540;2023-06-01T05:17:09;11.50;99.90
16102;DHT22;56411;52.964;10.540;2023-06-01T05:19:36;11.50;99.90
16102;DHT22;56411;52.964;10.540;2023-06-01T05:22:03;11.50;99.90
16102;DHT22;56411;52.964;10.540;2023-06-01T05:24:30;11.60;99.90
16102;DHT22;56411;52.964;10.540;2023-06-01T05:26:57;11.60;99.90
16102;DHT22;56411;52.964;10.540;2023-06-01T05:29:25;11.50;99.90
16102;DHT22;56411;52.964;10.540;2023-06-01T05:31:52;11.50;99.90
16102;DHT22;56411;52.964;10.540;2023-06-01T05:34:19;11.50;99.90
16102;DHT22;56411;52.964;10.540;2023-06-01T05:36:46;11.50;99.90
16102;DHT22;56411;52.964;10.540;2023-06-01T05:39:14;11.50;99.90
16102;DHT22;56411;52.964;10.540;2023-06-01T05:41:41;11.70;99.90
16102;DHT22;56411;52.964;10.540;2023-06-01T05:44:15;11.80;99.90
16102;DHT22;56411;52.964;10.540;2023-06-01T05:46:43;11.80;99.90
16102;DHT22;56411;52.964;10.540;2023-06-01T05:49:10;11.90;99.90
16102;DHT22;56411;52.964;10.540;2023-06-01T05:51:37;12.00;99.90
16102;DHT22;56411;52.964;10.540;2023-06-01T05:54:08;12.00;99.90
16102;DHT22;56411;52.964;10.540;2023-06-01T05:56:35;12.00;99.90
16102;DHT22;56411;52.964;10.540;2023-06-01T05:59:03;12.10;99.90
16102;DHT22;56411;52.964;10.540;2023-06-01T06:01:30;12.10;99.90
16102;DHT22;56411;52.964;10.540;2023-06-01T06:03:59;12.10;99.90
16102;DHT22;56411;52.964;10.540;2023-06-01T06:06:26;12.10;99.90
16102;DHT22;56411;52.964;10.540;2023-06-01T06:08:53;12.20;99.90
16102;DHT22;56411;52.964;10.540;2023-06-01T06:11:20;12.20;99.90
16102;DHT22;56411;52.964;10.540;2023-06-01T06:13:48;12.20;99.90
16102;DHT22;56411;52.964;10.540;2023-06-01T06:16:15;12.30;99.90
16102;DHT22;56411;52.964;10.540;2023-06-01T06:18:42;12.30;99.90
16102;DHT22;56411;52.964;10.540;2023-06-01T06:21:11;12.50;99.90
16102;DHT22;56411;52.964;10.540;2023-06-01T06:23:39;12.70;99.90
16102;DHT22;56411;52.964;10.540;2023-06-01T06:26:06;12.70;99.90
16102;DHT22;56411;52.964;10.540;2023-06-01T06:28:33;12.80;99.90
16102;DHT22;56411;52.964;10.540;2023-06-01T06:31:00;12.70;99.90
16102;DHT22;56411;52.964;10.540;2023-06-01T06:33:27;12.70;99.90
16102;DHT22;56411;52.964;10.540;2023-06-01T06:35:55;12.60;99.90
16102;DHT22;56411;52.964;10.540;2023-06-01T06:38:23;12.50;99.90
16102;DHT22;56411;52.964;10.540;2023-06-01T06:40:50;12.50;99.90
16102;DHT22;56411;52.964;10.540;2023-06-01T06:43:17;12.50;99.90
16102;DHT22;56411;52.964;10.540;2023-06-01T06:45:44;12.70;99.90
16102;DHT22;56411;52.964;10.540;2023-06-01T06:48:11;12.60;99.90
16102;DHT22;56411;52.964;10.540;2023-06-01T06:50:38;12.80;99.90
16102;DHT22;56411;52.964;10.540;2023-06-01T06:53:07;12.80;99.90
16102;DHT22;56411;52.964;10.540;2023-06-01T06:55:35;12.70;99.90
16102;DHT22;56411;52.964;10.540;2023-06-01T06:58:02;12.60;99.90
16102;DHT22;56411;52.964;10.540;2023-06-01T07:00:29;12.60;99.90
16102;DHT22;56411;52.964;10.540;2023-06-01T07:02:56;12.60;99.90
16102;DHT22;56411;52.964;10.540;2023-06-01T07:05:25;12.70;99.90
16102;DHT22;56411;52.964;10.540;2023-06-01T07:07:51;13.00;99.90
16102;DHT22;56411;52.964;10.540;2023-06-01T07:10:18;13.20;99.90
16102;DHT22;56411;52.964;10.540;2023-06-01T07:12:47;13.40;99.90
16102;DHT22;56411;52.964;10.540;2023-06-01T07:15:14;13.70;99.90
16102;DHT22;56411;52.964;10.540;2023-06-01T07:17:42;13.50;99.90
16102;DHT22;56411;52.964;10.540;2023-06-01T07:20:09;13.60;99.90
16102;DHT22;56411;52.964;10.540;2023-06-01T07:22:37;13.60;99.90
16102;DHT22;56411;52.964;10.540;2023-06-01T07:25:05;13.80;99.90
16102;DHT22;56411;52.964;10.540;2023-06-01T07:27:32;13.80;99.90
16102;DHT22;56411;52.964;10.540;2023-06-01T07:30:02;13.90;99.90
16102;DHT22;56411;52.964;10.540;2023-06-01T07:32:29;14.00;99.90
16102;DHT22;56411;52.964;10.540;2023-06-01T07:34:56;14.00;99.90
16102;DHT22;56411;52.964;10.540;2023-06-01T07:37:24;13.90;99.90
16102;DHT22;56411;52.964;10.540;2023-06-01T07:39:52;13.70;99.90
16102;DHT22;56411;52.964;10.540;2023-06-01T07:42:19;13.90;99.90
16102;DHT22;56411;52.964;10.540;2023-06-01T07:44:46;14.10;99.90
16102;DHT22;56411;52.964;10.540;2023-06-01T07:47:15;14.00;99.90
16102;DHT22;56411;52.964;10.540;2023-06-01T07:49:42;13.90;99.90
16102;DHT22;56411;52.964;10.540;2023-06-01T07:52:09;14.00;99.90
16102;DHT22;56411;52.964;10.540;2023-06-01T07:54:37;14.00;99.90
16102;DHT22;56411;52.964;10.540;2023-06-01T07:57:04;14.00;99.90
16102;DHT22;56411;52.964;10.540;2023-06-01T07:59:32;13.80;99.90
16102;DHT22;56411;52.964;10.540;2023-06-01T08:01:59;13.90;99.90
16102;DHT22;56411;52.964;10.540;2023-06-01T08:04:27;14.00;99.90
16102;DHT22;56411;52.964;10.540;2023-06-01T08:06:59;14.30;99.90
16102;DHT22;56411;52.964;10.540;2023-06-01T08:09:28;14.60;99.90
16102;DHT22;56411;52.964;10.540;2023-06-01T08:11:56;14.70;99.90
16102;DHT22;56411;52.964;10.540;2023-06-01T08:14:23;14.80;99.90
16102;DHT22;56411;52.964;10.540;2023-06-01T08:16:50;15.10;99.90
16102;DHT22;56411;52.964;10.540;2023-06-01T08:19:18;15.10;99.90
16102;DHT22;56411;52.964;10.540;2023-06-01T08:21:46;14.70;99.90
16102;DHT22;56411;52.964;10.540;2023-06-01T08:24:13;14.40;99.90
16102;DHT22;56411;52.964;10.540;2023-06-01T08:26:40;14.50;99.90
16102;DHT22;56411;52.964;10.540;2023-06-01T08:29:08;14.60;99.90
16102;DHT22;56411;52.964;10.540;2023-06-01T08:31:35;14.80;99.90
16102;DHT22;56411;52.964;10.540;2023-06-01T08:34:03;15.00;99.90
16102;DHT22;56411;52.964;10.540;2023-06-01T08:36:31;14.90;99.90
16102;DHT22;56411;52.964;10.540;2023-06-01T08:38:59;15.00;99.90
16102;DHT22;56411;52.964;10.540;2023-06-01T08:41:40;15.10;99.90
16102;DHT22;56411;52.964;10.540;2023-06-01T08:44:10;14.80;99.90
16102;DHT22;56411;52.964;10.540;2023-06-01T08:46:41;14.80;99.90
16102;DHT22;56411;52.964;10.540;2023-06-01T08:49:12;14.90;99.90
16102;DHT22;56411;52.964;10.540;2023-06-01T08:51:41;14.90;99.90
16102;DHT22;56411;52.964;10.540;2023-06-01T08:54:10;14.70;99.90
16102;DHT22;56411;52.964;10.540;2023-06-01T08:56:37;14.80;99.90
16102;DHT22;56411;52.964;10.540;2023-06-01T08:59:08;15.20;99.90
16102;DHT22;56411;52.964;10.540;2023-06-01T09:01:38;15.20;99.90
16102;DHT22;56411;52.964;10.540;2023-06-01T09:04:05;15.40;99.90
16102;DHT22;56411;52.964;10.540;2023-06-01T09:06:33;15.10;99.90
16102;DHT22;56411;52.964;10.540;2023-06-01T09:09:00;14.90;99.90
16102;DHT22;56411;52.964;10.540;2023-06-01T09:11:28;14.80;99.90
16102;DHT22;56411;52.964;10.540;2023-06-01T09:13:56;14.70;99.90
16102;DHT22;56411;52.964;10.540;2023-06-01T09:16:35;14.90;99.90
16102;DHT22;56411;52.964;10.540;2023-06-01T09:19:02;14.80;99.90
16102;DHT22;56411;52.964;10.540;2023-06-01T09:21:29;15.00;99.90
16102;DHT22;56411;52.964;10.540;2023-06-01T09:23:58;15.20;99.90
16102;DHT22;56411;52.964;10.540;2023-06-01T09:26:47;15.20;99.90
16102;DHT22;56411;52.964;10.540;2023-06-01T09:29:14;15.30;99.90
16102;DHT22;56411;52.964;10.540;2023-06-01T09:31:43;15.80;99.90
16102;DHT22;56411;52.964;10.540;2023-06-01T09:34:11;15.90;99.90
16102;DHT22;56411;52.964;10.540;2023-06-01T09:36:41;15.80;99.90
16102;DHT22;56411;52.964;10.540;2023-06-01T09:39:10;15.50;99.90
16102;DHT22;56411;52.964;10.540;2023-06-01T09:42:02;15.40;99.90
16102;DHT22;56411;52.964;10.540;2023-06-01T09:44:33;15.00;99.90
16102;DHT22;56411;52.964;10.540;2023-06-01T09:47:01;15.10;99.90
16102;DHT22;56411;52.964;10.540;2023-06-01T09:49:30;15.20;99.90
16102;DHT22;56411;52.964;10.540;2023-06-01T09:52:12;15.00;99.90
16102;DHT22;56411;52.964;10.540;2023-06-01T09:54:42;15.00;99.90
16102;DHT22;56411;52.964;10.540;2023-06-01T09:57:11;15.00;99.90
16102;DHT22;56411;52.964;10.540;2023-06-01T09:59:40;15.00;99.90
16102;DHT22;56411;52.964;10.540;2023-06-01T10:02:11;15.20;99.90
16102;DHT22;56411;52.964;10.540;2023-06-01T10:04:40;15.20;99.90
16102;DHT22;56411;52.964;10.540;2023-06-01T10:07:08;15.20;99.90
16102;DHT22;56411;52.964;10.540;2023-06-01T10:09:38;15.30;99.90
16102;DHT22;56411;52.964;10.540;2023-06-01T10:12:09;15.30;99.90
16102;DHT22;56411;52.964;10.540;2023-06-01T10:14:37;15.30;99.90
16102;DHT22;56411;52.964;10.540;2023-06-01T10:17:05;15.70;99.90
16102;DHT22;56411;52.964;10.540;2023-06-01T10:19:33;15.80;99.90
16102;DHT22;56411;52.964;10.540;2023-06-01T10:22:02;15.80;99.90
16102;DHT22;56411;52.964;10.540;2023-06-01T10:24:29;15.80;99.90
16102;DHT22;56411;52.964;10.540;2023-06-01T10:27:03;15.90;99.90
16102;DHT22;56411;52.964;10.540;2023-06-01T10:29:33;15.60;99.90
16102;DHT22;56411;52.964;10.540;2023-06-01T10:32:01;15.40;99.90
16102;DHT22;56411;52.964;10.540;2023-06-01T10:34:38;15.40;99.90
16102;DHT22;56411;52.964;10.540;2023-06-01T10:37:15;15.50;99.90
16102;DHT22;56411;52.964;10.540;2023-06-01T10:39:43;15.60;99.90
16102;DHT22;56411;52.964;10.540;2023-06-01T10:42:36;15.60;99.90
16102;DHT22;56411;52.964;10.540;2023-06-01T10:45:07;15.60;99.90
16102;DHT22;56411;52.964;10.540;2023-06-01T10:47:45;15.80;99.90
16102;DHT22;56411;52.964;10.540;2023-06-01T10:50:17;15.80;99.90
16102;DHT22;56411;52.964;10.540;2023-06-01T10:52:44;16.00;99.90
16102;DHT22;56411;52.964;10.540;2023-06-01T10:55:25;16.20;99.90
16102;DHT22;56411;52.964;10.540;2023-06-01T10:58:20;16.20;99.90
16102;DHT22;56411;52.964;10.540;2023-06-01T11:00:49;16.10;99.90
16102;DHT22;56411;52.964;10.540;2023-06-01T11:03:44;16.40;99.90
16102;DHT22;56411;52.964;10.540;2023-06-01T11:06:24;17.00;99.90
16102;DHT22;56411;52.964;10.540;2023-06-01T11:08:55;17.30;99.90
16102;DHT22;56411;52.964;10.540;2023-06-01T11:11:22;17.80;99.90
16102;DHT22;56411;52.964;10.540;2023-06-01T11:14:07;17.70;99.90
16102;DHT22;56411;52.964;10.540;2023-06-01T11:16:36;17.30;99.90
16102;DHT22;56411;52.964;10.540;2023-06-01T11:19:04;17.00;99.90
16102;DHT22;56411;52.964;10.540;2023-06-01T11:21:37;17.50;99.90
16102;DHT22;56411;52.964;10.540;2023-06-01T11:24:07;17.90;99.90
16102;DHT22;56411;52.964;10.540;2023-06-01T11:26:41;18.10;99.90
16102;DHT22;56411;52.964;10.540;2023-06-01T11:29:12;17.80;99.90
16102;DHT22;56411;52.964;10.540;2023-06-01T11:31:44;18.10;99.90
16102;DHT22;56411;52.964;10.540;2023-06-01T11:34:13;18.30;99.90
16102;DHT22;56411;52.964;10.540;2023-06-01T11:36:45;18.50;99.90
16102;DHT22;56411;52.964;10.540;2023-06-01T11:39:22;18.30;99.90
16102;DHT22;56411;52.964;10.540;2023-06-01T11:41:52;18.70;99.90
16102;DHT22;56411;52.964;10.540;2023-06-01T11:44:19;18.20;99.90
16102;DHT22;56411;52.964;10.540;2023-06-01T11:46:52;18.20;99.90
16102;DHT22;56411;52.964;10.540;2023-06-01T11:49:19;18.60;99.90
16102;DHT22;56411;52.964;10.540;2023-06-01T11:51:47;18.80;99.90
16102;DHT22;56411;52.964;10.540;2023-06-01T11:54:16;19.70;99.90
16102;DHT22;56411;52.964;10.540;2023-06-01T11:56:47;20.20;99.90
16102;DHT22;56411;52.964;10.540;2023-06-01T11:59:14;20.00;99.90
16102;DHT22;56411;52.964;10.540;2023-06-01T12:01:43;19.20;99.90
16102;DHT22;56411;52.964;10.540;2023-06-01T12:04:13;18.80;99.90
16102;DHT22;56411;52.964;10.540;2023-06-01T12:06:40;19.00;99.90
16102;DHT22;56411;52.964;10.540;2023-06-01T12:09:09;19.70;99.90
16102;DHT22;56411;52.964;10.540;2023-06-01T12:11:36;19.10;99.90
16102;DHT22;56411;52.964;10.540;2023-06-01T12:14:05;18.90;99.90
16102;DHT22;56411;52.964;10.540;2023-06-01T12:16:51;18.50;99.90
16102;DHT22;56411;52.964;10.540;2023-06-01T12:19:20;18.90;99.90
16102;DHT22;56411;52.964;10.540;2023-06-01T12:21:48;19.70;99.90
16102;DHT22;56411;52.964;10.540;2023-06-01T12:24:17;19.00;99.90
16102;DHT22;56411;52.964;10.540;2023-06-01T12:26:44;18.50;99.90
16102;DHT22;56411;52.964;10.540;2023-06-01T12:29:11;18.60;99.90
16102;DHT22;56411;52.964;10.540;2023-06-01T12:31:38;19.40;99.90
16102;DHT22;56411;52.964;10.540;2023-06-01T12:34:15;20.10;99.90
16102;DHT22;56411;52.964;10.540;2023-06-01T12:36:44;20.20;99.90
16102;DHT22;56411;52.964;10.540;2023-06-01T12:39:11;20.10;99.90
16102;DHT22;56411;52.964;10.540;2023-06-01T12:41:47;19.60;99.90
16102;DHT22;56411;52.964;10.540;2023-06-01T12:44:19;19.90;99.90
16102;DHT22;56411;52.964;10.540;2023-06-01T12:46:46;19.50;99.90
16102;DHT22;56411;52.964;10.540;2023-06-01T12:49:15;19.50;99.90
16102;DHT22;56411;52.964;10.540;2023-06-01T12:51:44;20.00;99.90
16102;DHT22;56411;52.964;10.540;2023-06-01T12:54:12;20.90;99.90
16102;DHT22;56411;52.964;10.540;2023-06-01T12:56:39;20.50;99.90
16102;DHT22;56411;52.964;10.540;2023-06-01T12:59:09;20.00;99.90
16102;DHT22;56411;52.964;10.540;2023-06-01T13:01:36;20.00;99.90
16102;DHT22;56411;52.964;10.540;2023-06-01T13:04:03;20.00;99.90
16102;DHT22;56411;52.964;10.540;2023-06-01T13:06:30;20.40;99.90
16102;DHT22;56411;52.964;10.540;2023-06-01T13:08:58;20.30;99.90
16102;DHT22;56411;52.964;10.540;2023-06-01T13:11:25;20.90;99.90
16102;DHT22;56411;52.964;10.540;2023-06-01T13:13:52;20.60;99.90
16102;DHT22;56411;52.964;10.540;2023-06-01T13:16:20;21.40;99.90
16102;DHT22;56411;52.964;10.540;2023-06-01T13:18:47;22.00;99.90
16102;DHT22;56411;52.964;10.540;2023-06-01T13:21:16;22.30;99.90
16102;DHT22;56411;52.964;10.540;2023-06-01T13:23:43;22.00;99.90
16102;DHT22;56411;52.964;10.540;2023-06-01T13:26:12;21.80;99.90
16102;DHT22;56411;52.964;10.540;2023-06-01T13:28:40;21.70;99.90
16102;DHT22;56411;52.964;10.540;2023-06-01T13:31:07;22.90;99.90
16102;DHT22;56411;52.964;10.540;2023-06-01T13:33:34;22.80;99.90
16102;DHT22;56411;52.964;10.540;2023-06-01T13:36:02;22.10;99.90
16102;DHT22;56411;52.964;10.540;2023-06-01T13:38:29;22.40;99.90
16102;DHT22;56411;52.964;10.540;2023-06-01T13:40:56;21.80;99.90
16102;DHT22;56411;52.964;10.540;2023-06-01T13:43:25;20.70;99.90
16102;DHT22;56411;52.964;10.540;2023-06-01T13:45:52;20.30;99.90
16102;DHT22;56411;52.964;10.540;2023-06-01T13:48:19;20.70;99.90
16102;DHT22;56411;52.964;10.540;2023-06-01T13:50:46;20.80;99.90
16102;DHT22;56411;52.964;10.540;2023-06-01T13:53:13;21.10;99.90
16102;DHT22;56411;52.964;10.540;2023-06-01T13:55:40;21.40;99.90
16102;DHT22;56411;52.964;10.540;2023-06-01T13:58:07;21.80;99.90
16102;DHT22;56411;52.964;10.540;2023-06-01T14:00:35;21.70;99.90
16102;DHT22;56411;52.964;10.540;2023-06-01T14:03:02;21.00;99.90
16102;DHT22;56411;52.964;10.540;2023-06-01T14:05:29;21.10;99.90
16102;DHT22;56411;52.964;10.540;2023-06-01T14:07:56;21.10;99.90
16102;DHT22;56411;52.964;10.540;2023-06-01T14:10:23;20.90;99.90
16102;DHT22;56411;52.964;10.540;2023-06-01T14:12:50;21.90;99.90
16102;DHT22;56411;52.964;10.540;2023-06-01T14:15:17;21.40;99.90
16102;DHT22;56411;52.964;10.540;2023-06-01T14:17:45;20.80;99.90
16102;DHT22;56411;52.964;10.540;2023-06-01T14:20:13;20.80;99.90
16102;DHT22;56411;52.964;10.540;2023-06-01T14:22:40;21.60;99.90
16102;DHT22;56411;52.964;10.540;2023-06-01T14:25:07;22.30;99.90
16102;DHT22;56411;52.964;10.540;2023-06-01T14:27:34;22.40;99.90
16102;DHT22;56411;52.964;10.540;2023-06-01T14:30:03;21.90;99.90
16102;DHT22;56411;52.964;10.540;2023-06-01T14:32:31;21.70;99.90
16102;DHT22;56411;52.964;10.540;2023-06-01T14:34:59;21.30;99.90
16102;DHT22;56411;52.964;10.540;2023-06-01T14:37:26;21.70;99.90
16102;DHT22;56411;52.964;10.540;2023-06-01T14:39:56;22.50;99.90
16102;DHT22;56411;52.964;10.540;2023-06-01T14:42:23;22.40;99.90
16102;DHT22;56411;52.964;10.540;2023-06-01T14:44:50;22.30;99.90
16102;DHT22;56411;52.964;10.540;2023-06-01T14:47:17;22.00;99.90
16102;DHT22;56411;52.964;10.540;2023-06-01T14:49:44;21.80;99.90
16102;DHT22;56411;52.964;10.540;2023-06-01T14:52:12;21.40;99.90
16102;DHT22;56411;52.964;10.540;2023-06-01T14:54:39;21.80;99.90
16102;DHT22;56411;52.964;10.540;2023-06-01T14:57:08;22.10;99.90
16102;DHT22;56411;52.964;10.540;2023-06-01T14:59:35;22.40;99.90
16102;DHT22;56411;52.964;10.540;2023-06-01T15:02:02;22.10;99.90
16102;DHT22;56411;52.964;10.540;2023-06-01T15:04:29;21.90;99.90
16102;DHT22;56411;52.964;10.540;2023-06-01T15:06:56;22.10;99.90
16102;DHT22;56411;52.964;10.540;2023-06-01T15:09:25;21.60;99.90
16102;DHT22;56411;52.964;10.540;2023-06-01T15:11:52;21.80;99.90
16102;DHT22;56411;52.964;10.540;2023-06-01T15:14:19;22.60;99.90
16102;DHT22;56411;52.964;10.540;2023-06-01T15:16:46;23.00;99.90
16102;DHT22;56411;52.964;10.540;2023-06-01T15:19:13;23.60;99.90
16102;DHT22;56411;52.964;10.540;2023-06-01T15:21:40;22.80;99.90
16102;DHT22;56411;52.964;10.540;2023-06-01T15:24:08;22.20;99.90
16102;DHT22;56411;52.964;10.540;2023-06-01T15:26:37;21.10;99.90